Terminal Aerodrome Forecast
Issued by NWS

Home | Current Version | Previous Version | Text Only | Print | Product List | Glossary On
Versions: 1 2 3 4 5 6 7 8 9 10 11 12 13 14 15 16 17 18 19 20 21 22 23 24 25 26 27 28 29 30
000
FTUS44 KOUN 291432 AAA
TAFPNC
TAF AMD
KPNC 291432Z 2915/3012 04010G15KT P6SM VCSH OVC025
      TEMPO 2915/2918 5SM -TSRA BR BKN015CB
     FM292000 11014G21KT P6SM OVC025
      TEMPO 2921/3001 3SM TSRA BR OVC015CB
     FM300200 15012KT P6SM BKN050=

USA.gov is the U.S. government's official web portal to all federal, state and local government web resources and services.